Time;durP1;ratioP1;P1;durP2;ratioP2;P2;SDS_P1;SDS_P2;PMS_P1;PMS_P2;Temp;Humidity;BMP_temperature;BMP_pressure;BME280_temperature;BME280_humidity;BME280_pressure;Samples;Min_cycle;Max_cycle;Signal;HPM_P1;HPM_P2
2022/10/27 00:00:51;;;;;;;0.20;0.20;;;;;;;15.42;69.13;101645.19;5137995;28;20043;-83
2022/10/27 00:03:22;;;;;;;0.55;0.55;;;;;;;15.37;69.49;101643.63;5135862;28;20043;-82
2022/10/27 00:05:52;;;;;;;0.32;0.32;;;;;;;15.35;69.67;101648.94;5095470;29;20115;-83
2022/10/27 00:08:26;;;;;;;0.20;0.20;;;;;;;15.34;69.70;101649.00;5082041;29;20103;-83
2022/10/27 00:10:57;;;;;;;;;;;;;;;15.32;69.99;101643.78;5106862;29;20063;-84
2022/10/27 00:13:31;;;;;;;2.10;0.95;;;;;;;15.32;69.98;101649.06;5100194;29;19919;-83
2022/10/27 00:16:05;;;;;;;0.40;0.40;;;;;;;15.32;69.75;101648.19;5074388;29;20040;-82
2022/10/27 00:18:36;;;;;;;0.95;0.88;;;;;;;15.38;69.50;101648.88;5111050;28;20407;-82
2022/10/27 00:21:25;;;;;;;0.82;0.82;;;;;;;15.67;69.29;101654.09;5132112;28;20028;-82
2022/10/27 00:23:56;;;;;;;0.75;0.43;;;;;;;15.45;69.35;101646.88;5114828;28;20180;-83
2022/10/27 00:26:26;;;;;;;0.28;0.28;;;;;;;15.41;68.70;101651.38;5070701;29;20024;-83
2022/10/27 00:28:59;;;;;;;0.30;0.30;;;;;;;15.41;69.23;101651.38;5102421;29;20048;-83
2022/10/27 00:31:29;;;;;;;0.30;0.30;;;;;;;15.40;69.10;101656.72;5083739;29;20028;-82
2022/10/27 00:34:00;;;;;;;0.50;0.50;;;;;;;15.36;69.50;101650.69;5112464;28;20058;-84
2022/10/27 00:36:31;;;;;;;0.88;0.85;;;;;;;15.29;69.39;101651.78;5091688;29;20037;-82
2022/10/27 00:39:13;;;;;;;0.50;0.50;;;;;;;15.29;69.01;101651.78;5060629;29;20052;-85
2022/10/27 00:41:44;;;;;;;2.10;0.57;;;;;;;15.25;69.42;101648.38;5118650;29;20470;-82
2022/10/27 00:44:29;;;;;;;0.90;0.88;;;;;;;15.22;69.42;101648.47;5108445;28;20044;-83
2022/10/27 00:47:10;;;;;;;3.72;1.48;;;;;;;15.22;69.46;101648.47;5121175;28;20088;-83
2022/10/27 00:49:47;;;;;;;0.40;0.40;;;;;;;15.20;69.13;101650.31;5090410;29;20048;-82
2022/10/27 00:52:42;;;;;;;0.30;0.30;;;;;;;15.18;69.37;101644.22;5110718;28;20036;-82
2022/10/27 00:55:15;;;;;;;1.00;0.98;;;;;;;15.21;69.07;101648.53;5107296;29;20598;-83
2022/10/27 00:57:49;;;;;;;0.45;0.45;;;;;;;15.21;68.95;101657.31;5087645;29;20072;-83
2022/10/27 01:00:20;;;;;;;1.50;1.05;;;;;;;15.20;69.16;101654.72;5119094;28;20032;-82
2022/10/27 01:02:54;;;;;;;0.50;0.50;;;;;;;15.16;69.41;101655.75;5079479;29;20032;-82
2022/10/27 01:05:27;;;;;;;0.45;0.45;;;;;;;15.16;69.37;101653.09;5108247;29;20024;-83
2022/10/27 01:08:01;;;;;;;0.55;0.55;;;;;;;15.10;69.23;101648.88;5067439;29;20048;-83
2022/10/27 01:10:32;;;;;;;0.38;0.38;;;;;;;15.14;69.05;101660.22;5070906;29;20077;-83
2022/10/27 01:13:09;;;;;;;1.40;1.30;;;;;;;15.07;69.08;101662.19;5113988;28;20052;-83
2022/10/27 01:16:07;;;;;;;0.40;0.40;;;;;;;14.96;69.60;101657.22;5097979;29;20048;-83
2022/10/27 01:19:09;;;;;;;1.10;1.10;;;;;;;14.91;69.65;101654.72;5085691;28;20056;-83
2022/10/27 01:21:40;;;;;;;2.25;0.93;;;;;;;14.94;69.74;101653.75;5102028;29;20032;-82
2022/10/27 01:24:44;;;;;;;1.10;1.00;;;;;;;14.98;69.13;101657.16;5097042;29;20040;-83
2022/10/27 01:27:30;;;;;;;0.20;0.20;;;;;;;14.93;69.29;101667.88;5106261;29;20063;-82
2022/10/27 01:30:19;;;;;;;0.57;0.57;;;;;;;14.91;69.31;101667.09;5108677;28;20048;-82
2022/10/27 01:33:01;;;;;;;0.55;0.55;;;;;;;14.90;69.57;101668.84;5131082;28;20071;-83
2022/10/27 01:35:51;;;;;;;0.73;0.65;;;;;;;14.90;69.44;101675.91;5069371;29;20071;-82
2022/10/27 01:38:34;;;;;;;0.60;0.60;;;;;;;14.86;69.24;101667.22;5062274;29;20048;-83
2022/10/27 01:41:15;;;;;;;0.93;0.88;;;;;;;14.83;69.32;101669.09;5091756;29;20095;-82
2022/10/27 01:43:50;;;;;;;0.95;0.95;;;;;;;14.87;68.97;101670.72;5094151;28;20062;-83
2022/10/27 01:46:20;;;;;;;1.48;1.15;;;;;;;14.81;69.08;101676.19;5085944;29;20064;-83
2022/10/27 01:48:56;;;;;;;0.57;0.57;;;;;;;14.75;68.97;101677.22;5096439;28;20516;-83
2022/10/27 01:51:27;;;;;;;0.60;0.60;;;;;;;14.76;68.86;101671.03;5087333;29;20230;-83
2022/10/27 01:53:58;;;;;;;1.05;0.95;;;;;;;14.79;68.74;101674.44;5098521;29;20257;-84
2022/10/27 01:57:00;;;;;;;0.40;0.40;;;;;;;14.64;69.39;101680.16;5091615;29;20032;-83
2022/10/27 01:59:57;;;;;;;0.22;0.22;;;;;;;14.65;69.18;101684.53;5067470;29;20079;-83
2022/10/27 02:02:27;;;;;;;0.60;0.60;;;;;;;14.65;68.78;101689.81;5084602;29;20040;-83
2022/10/27 02:05:07;;;;;;;0.85;0.85;;;;;;;14.63;68.96;101684.56;5069400;29;20587;-82
2022/10/27 02:07:55;;;;;;;0.65;0.65;;;;;;;14.65;68.68;101689.81;5107054;28;20067;-83
2022/10/27 02:10:31;;;;;;;0.82;0.82;;;;;;;14.62;68.89;101695.16;5106864;29;20132;-83
2022/10/27 02:13:03;;;;;;;1.10;1.08;;;;;;;14.55;68.99;101688.34;5080389;28;20044;-83
2022/10/27 02:15:38;;;;;;;0.60;0.60;;;;;;;14.54;68.96;101694.53;5121002;28;20215;-83
2022/10/27 02:18:17;;;;;;;0.40;0.40;;;;;;;14.56;68.49;101695.34;5105610;28;20059;-83
2022/10/27 02:20:52;;;;;;;0.30;0.30;;;;;;;14.55;68.85;101691.81;5120428;28;20092;-84
2022/10/27 02:23:26;;;;;;;1.15;1.05;;;;;;;14.52;68.39;101688.41;5121330;28;20044;-83
2022/10/27 02:26:01;;;;;;;0.43;0.43;;;;;;;14.49;68.91;101686.72;5102515;29;20028;-83
2022/10/27 02:28:37;;;;;;;0.65;0.65;;;;;;;14.45;68.85;101683.31;5087225;29;20473;-83
2022/10/27 02:31:16;;;;;;;0.50;0.50;;;;;;;14.40;68.79;101684.34;5115486;28;20068;-83
2022/10/27 02:33:48;;;;;;;0.32;0.32;;;;;;;14.38;68.74;101684.38;5121099;28;20044;-83
2022/10/27 02:36:18;;;;;;;0.47;0.47;;;;;;;14.39;68.80;101678.22;5059223;29;20033;-83
2022/10/27 02:38:49;;;;;;;0.40;0.40;;;;;;;14.37;68.80;101692.38;5085088;29;20050;-84
2022/10/27 02:41:20;;;;;;;0.50;0.50;;;;;;;14.37;68.75;101679.16;5107888;29;20120;-83
2022/10/27 02:43:50;;;;;;;1.45;0.80;;;;;;;14.33;68.75;101678.38;5123007;28;20044;-83
2022/10/27 02:46:22;;;;;;;0.50;0.50;;;;;;;14.27;69.16;101679.41;5088428;29;20061;-83
2022/10/27 02:48:52;;;;;;;0.70;0.70;;;;;;;14.23;69.24;101683.03;5103053;29;20074;-83
2022/10/27 02:51:23;;;;;;;0.20;0.20;;;;;;;14.21;68.92;101676.94;5122769;28;20074;-82
2022/10/27 02:53:54;;;;;;;0.73;0.73;;;;;;;14.21;69.02;101679.59;5125528;28;20047;-83
2022/10/27 02:56:35;;;;;;;0.60;0.40;;;;;;;14.17;69.06;101691.97;5106032;29;20071;-83
2022/10/27 02:59:06;;;;;;;0.30;0.30;;;;;;;14.19;68.83;101685.78;5116936;28;20049;-83
2022/10/27 03:01:37;;;;;;;0.47;0.47;;;;;;;14.19;68.97;101681.41;5115695;28;20036;-82
2022/10/27 03:04:10;;;;;;;0.80;0.80;;;;;;;14.17;68.87;101668.22;5129924;28;20032;-83
2022/10/27 03:06:41;;;;;;;1.55;1.30;;;;;;;14.17;68.46;101665.56;5107070;29;20035;-82
2022/10/27 03:09:14;;;;;;;1.20;1.10;;;;;;;14.16;68.57;101666.50;5106075;29;20031;-83
2022/10/27 03:11:45;;;;;;;0.40;0.40;;;;;;;14.10;68.97;101674.56;5124733;28;20043;-83
2022/10/27 03:14:15;;;;;;;2.15;1.60;;;;;;;14.14;68.97;101668.31;5109027;29;20032;-81
2022/10/27 03:16:48;;;;;;;0.47;0.47;;;;;;;14.11;68.94;101655.19;5114270;29;20042;-82
2022/10/27 03:19:19;;;;;;;;;;;;;;;14.06;69.20;101664.13;5107525;29;20036;-84
2022/10/27 03:21:49;;;;;;;13.30;3.13;;;;;;;14.07;68.89;101666.75;5124692;28;20002;-82
2022/10/27 03:24:20;;;;;;;0.75;0.75;;;;;;;14.04;68.95;101661.53;5107960;28;20081;-82
2022/10/27 03:26:51;;;;;;;0.52;0.52;;;;;;;14.00;69.33;101655.50;5138296;28;20035;-83
2022/10/27 03:29:24;;;;;;;1.67;1.50;;;;;;;14.00;68.92;101660.75;5109959;29;20050;-83
2022/10/27 03:31:54;;;;;;;;;;;;;;;13.97;68.99;101652.06;5123922;28;20036;-83
2022/10/27 03:34:28;;;;;;;0.52;0.52;;;;;;;13.99;68.94;101655.53;5082229;29;19919;-83
2022/10/27 03:36:59;;;;;;;2.85;1.90;;;;;;;13.95;69.08;101648.59;5124181;28;20039;-83
2022/10/27 03:39:29;;;;;;;2.53;2.03;;;;;;;13.92;69.15;101656.59;5122134;28;20047;-84
2022/10/27 03:42:03;;;;;;;2.55;1.42;;;;;;;13.95;69.08;101656.50;5110651;29;20028;-84
2022/10/27 03:44:33;;;;;;;;;;;;;;;13.91;69.28;101646.97;5080943;29;20335;-84
2022/10/27 03:47:03;;;;;;;3.50;2.47;;;;;;;13.88;69.15;101654.94;5093049;29;19915;-83
2022/10/27 03:49:34;;;;;;;3.47;2.03;;;;;;;13.86;69.59;101652.34;5118749;29;20040;-83
2022/10/27 03:52:04;;;;;;;0.88;0.88;;;;;;;13.87;68.95;101647.94;5120532;29;20028;-83
2022/10/27 03:54:35;;;;;;;2.38;1.27;;;;;;;13.81;69.45;101655.09;5110450;29;20051;-81
2022/10/27 03:57:05;;;;;;;0.63;0.63;;;;;;;13.82;69.34;101648.94;5105786;29;20060;-83
2022/10/27 03:59:36;;;;;;;0.50;0.50;;;;;;;13.81;69.11;101648.94;5101447;29;20043;-82
2022/10/27 04:02:10;;;;;;;1.30;1.10;;;;;;;13.79;69.10;101651.63;5099183;29;20033;-84
2022/10/27 04:04:40;;;;;;;;;;;;;;;13.77;69.53;101645.53;5116467;28;20071;-83
2022/10/27 04:07:10;;;;;;;0.70;0.70;;;;;;;13.78;69.44;101642.00;5106814;29;19996;-83
2022/10/27 04:09:41;;;;;;;0.77;0.77;;;;;;;13.77;69.26;101648.16;5111949;29;20119;-83
2022/10/27 04:12:14;;;;;;;0.82;0.68;;;;;;;13.75;69.50;101644.72;5120749;29;20102;-83
2022/10/27 04:14:45;;;;;;;0.32;0.32;;;;;;;13.72;69.28;101652.69;5102815;28;20076;-84
2022/10/27 04:17:23;;;;;;;1.15;0.95;;;;;;;13.70;69.33;101646.59;5085358;29;20032;-84
2022/10/27 04:20:06;;;;;;;0.43;0.43;;;;;;;13.67;69.83;101644.06;5084645;29;20043;-87
2022/10/27 04:22:40;;;;;;;0.30;0.30;;;;;;;13.67;69.27;101636.13;5101273;28;20024;-85
2022/10/27 04:25:10;;;;;;;0.77;0.77;;;;;;;13.65;69.65;101643.22;5122586;28;20287;-83
2022/10/27 04:27:41;;;;;;;1.77;1.67;;;;;;;13.67;69.35;101638.78;5099046;28;20024;-85
2022/10/27 04:30:12;;;;;;;0.70;0.70;;;;;;;13.62;69.52;101643.28;5083266;29;20277;-85
2022/10/27 04:32:42;;;;;;;1.00;0.70;;;;;;;13.61;69.44;101646.81;5097949;29;20032;-84
2022/10/27 04:35:13;;;;;;;0.73;0.73;;;;;;;13.54;69.66;101636.44;5108025;29;20047;-85
2022/10/27 04:37:47;;;;;;;1.13;1.10;;;;;;;13.54;69.43;101641.72;5100793;28;20075;-85
2022/10/27 04:40:18;;;;;;;0.43;0.43;;;;;;;13.57;69.41;101642.53;5085785;29;20036;-82
2022/10/27 04:42:52;;;;;;;0.70;0.70;;;;;;;13.54;69.53;101636.44;5071717;29;20086;-84
2022/10/27 04:45:23;;;;;;;0.38;0.38;;;;;;;13.50;69.66;101637.44;5100432;29;20028;-84
2022/10/27 04:47:53;;;;;;;0.32;0.32;;;;;;;13.44;70.42;101640.19;5096734;28;20130;-84
2022/10/27 04:50:26;;;;;;;0.70;0.70;;;;;;;13.41;69.96;101635.00;5056891;29;20036;-84
2022/10/27 04:52:58;;;;;;;;;;;;;;;13.35;70.29;101630.72;5099113;28;20063;-84
2022/10/27 04:55:31;;;;;;;3.78;3.47;;;;;;;13.30;71.11;101634.38;5123025;28;20110;-83
2022/10/27 04:58:02;;;;;;;0.65;0.65;;;;;;;13.28;71.40;101638.78;5083851;28;20727;-83
2022/10/27 05:00:32;;;;;;;0.20;0.20;;;;;;;13.26;71.29;101638.84;5072841;29;20154;-84
2022/10/27 05:03:03;;;;;;;3.40;2.35;;;;;;;13.27;71.36;101634.44;5084173;29;20044;-81
2022/10/27 05:05:34;;;;;;;1.65;0.68;;;;;;;13.27;72.13;101637.94;5085877;28;20036;-85
2022/10/27 05:08:04;;;;;;;0.35;0.35;;;;;;;13.31;70.89;101644.00;5090291;28;20442;-84
2022/10/27 05:10:35;;;;;;;0.43;0.43;;;;;;;13.29;71.78;101645.81;5084105;29;20522;-84
2022/10/27 05:13:05;;;;;;;0.22;0.22;;;;;;;13.29;71.70;101645.81;5056647;28;20432;-81
2022/10/27 05:15:36;;;;;;;0.40;0.40;;;;;;;13.34;70.93;101638.69;5073333;29;20036;-83
2022/10/27 05:18:07;;;;;;;0.30;0.30;;;;;;;13.35;72.11;101641.25;5086001;28;20048;-84
2022/10/27 05:20:37;;;;;;;0.98;0.98;;;;;;;13.35;72.13;101643.00;5089904;29;20036;-82
2022/10/27 05:23:14;;;;;;;0.73;0.73;;;;;;;13.35;72.33;101636.00;5085615;29;20044;-82
2022/10/27 05:25:50;;;;;;;0.35;0.30;;;;;;;13.37;71.86;101643.84;5103058;29;20043;-85
2022/10/27 05:28:21;;;;;;;1.85;1.70;;;;;;;13.37;71.73;101641.22;5057464;29;20058;-81
2022/10/27 05:30:57;;;;;;;0.40;0.40;;;;;;;13.38;72.24;101642.97;5099553;29;20075;-82
2022/10/27 05:33:28;;;;;;;0.50;0.40;;;;;;;13.40;71.90;101646.47;5116234;28;20047;-84
2022/10/27 05:36:02;;;;;;;0.28;0.28;;;;;;;13.41;72.00;101639.41;5108281;29;20029;-84
2022/10/27 05:38:32;;;;;;;0.47;0.47;;;;;;;13.40;72.71;101633.28;5088725;29;20135;-82
2022/10/27 05:41:05;;;;;;;0.63;0.63;;;;;;;13.43;72.02;101634.97;5087352;29;20067;-83
2022/10/27 05:43:37;;;;;;;;;;;;;;;13.38;72.99;101641.22;5088288;29;20117;-84
2022/10/27 05:46:08;;;;;;;0.50;0.50;;;;;;;13.45;71.97;101641.06;5115710;28;19931;-82
2022/10/27 05:48:39;;;;;;;0.73;0.73;;;;;;;13.45;71.88;101639.28;5086245;29;20072;-84
2022/10/27 05:51:12;;;;;;;0.82;0.82;;;;;;;13.47;72.08;101653.31;5100575;29;20052;-82
2022/10/27 05:53:42;;;;;;;;;;;;;;;13.48;71.89;101649.78;5087421;29;20104;-83
2022/10/27 05:56:13;;;;;;;2.40;1.23;;;;;;;13.46;71.96;101648.94;5099260;29;19965;-83
2022/10/27 05:58:43;;;;;;;0.45;0.45;;;;;;;13.47;72.10;101645.41;5115464;28;20104;-83
2022/10/27 06:01:14;;;;;;;1.08;0.40;;;;;;;13.48;71.77;101654.16;5076294;29;20091;-83
2022/10/27 06:03:45;;;;;;;3.80;2.15;;;;;;;13.50;71.46;101655.00;5072291;29;20078;-84
2022/10/27 06:06:15;;;;;;;1.17;1.02;;;;;;;13.48;71.75;101652.41;5055601;29;20035;-83
2022/10/27 06:08:46;;;;;;;1.40;1.30;;;;;;;13.46;72.04;101654.22;5101622;29;20076;-83
2022/10/27 06:11:16;;;;;;;0.45;0.45;;;;;;;13.48;71.47;101662.97;5082961;29;20851;-84
2022/10/27 06:13:51;;;;;;;0.47;0.47;;;;;;;13.44;71.81;101665.72;5081139;29;20149;-83
2022/10/27 06:16:25;;;;;;;0.68;0.68;;;;;;;13.44;72.00;101668.34;5072774;29;20028;-82
2022/10/27 06:18:56;;;;;;;0.55;0.52;;;;;;;13.43;72.12;101666.59;5085545;28;20036;-82
2022/10/27 06:21:27;;;;;;;0.75;0.50;;;;;;;13.41;72.06;101671.91;5098728;28;20024;-82
2022/10/27 06:23:59;;;;;;;0.85;0.85;;;;;;;13.43;71.85;101667.44;5055413;29;20075;-82
2022/10/27 06:26:30;;;;;;;0.52;0.52;;;;;;;13.41;71.78;101677.19;5085933;29;20033;-82
2022/10/27 06:29:01;;;;;;;0.30;0.30;;;;;;;13.38;72.31;101671.94;5115349;28;20039;-81
2022/10/27 06:31:31;;;;;;;0.43;0.30;;;;;;;13.32;73.07;101672.09;5078543;29;20451;-82
2022/10/27 06:34:02;;;;;;;0.50;0.50;;;;;;;13.33;72.52;101677.31;5083586;28;20122;-82
2022/10/27 06:36:34;;;;;;;1.98;1.27;;;;;;;13.37;71.88;101675.47;5089291;29;20427;-84
2022/10/27 06:39:08;;;;;;;0.55;0.55;;;;;;;13.35;72.41;101683.44;5105151;28;20091;-84
2022/10/27 06:41:39;;;;;;;2.35;1.33;;;;;;;13.38;72.53;101674.59;5129969;28;20423;-84
2022/10/27 06:44:09;;;;;;;0.75;0.75;;;;;;;13.35;72.37;101672.00;5117149;28;20051;-82
2022/10/27 06:46:41;;;;;;;0.90;0.88;;;;;;;13.32;72.79;101675.59;5090589;29;20059;-82
2022/10/27 06:49:11;;;;;;;0.30;0.30;;;;;;;13.34;72.61;101671.16;5119272;28;20118;-83
2022/10/27 06:51:42;;;;;;;0.93;0.93;;;;;;;13.34;72.39;101676.44;5103695;28;20045;-83
2022/10/27 06:54:15;;;;;;;0.30;0.30;;;;;;;13.32;73.21;101672.94;5119909;28;20094;-83
2022/10/27 06:56:46;;;;;;;4.03;1.45;;;;;;;13.36;72.55;101673.75;5118436;28;20044;-83
2022/10/27 06:59:17;;;;;;;0.85;0.85;;;;;;;13.32;73.85;101672.94;5104365;28;20040;-83
2022/10/27 07:01:47;;;;;;;0.50;0.50;;;;;;;13.39;72.77;101663.19;5085531;29;20414;-83
2022/10/27 07:04:18;;;;;;;0.30;0.30;;;;;;;13.41;72.89;101657.84;5102730;29;20031;-82
2022/10/27 07:06:48;;;;;;;0.35;0.35;;;;;;;13.43;73.32;101658.69;5118259;28;20038;-83
2022/10/27 07:09:19;;;;;;;0.73;0.63;;;;;;;13.42;73.51;101660.47;5135335;28;20059;-82
2022/10/27 07:11:49;;;;;;;0.70;0.70;;;;;;;13.45;73.34;101655.09;5102567;29;20027;-84
2022/10/27 07:14:20;;;;;;;1.65;1.55;;;;;;;13.46;74.37;101650.72;5120146;29;20067;-83
2022/10/27 07:16:50;;;;;;;1.15;0.80;;;;;;;13.44;74.49;101658.66;5090694;29;20043;-83
2022/10/27 07:19:21;;;;;;;0.20;0.20;;;;;;;13.46;74.77;101654.22;5102383;28;20102;-82
2022/10/27 07:21:51;;;;;;;7.85;1.63;;;;;;;13.40;78.86;101657.00;5106192;28;20107;-83
2022/10/27 07:24:22;;;;;;;0.32;0.32;;;;;;;13.47;75.21;101653.31;5112949;28;20039;-84
2022/10/27 07:26:53;;;;;;;0.25;0.25;;;;;;;13.55;75.76;101653.13;5107109;29;20123;-85
2022/10/27 07:29:23;;;;;;;0.40;0.40;;;;;;;13.56;77.67;101654.00;5137693;28;20044;-84
2022/10/27 07:31:54;;;;;;;0.88;0.88;;;;;;;13.53;76.31;101655.78;5134850;28;20028;-82
2022/10/27 07:34:24;;;;;;;0.50;0.50;;;;;;;13.64;76.71;101641.47;5101873;29;20043;-82
2022/10/27 07:36:55;;;;;;;0.40;0.40;;;;;;;13.67;76.22;101642.28;5102097;29;20060;-82
2022/10/27 07:39:25;;;;;;;1.20;0.43;;;;;;;13.67;76.31;101637.00;5105843;28;20123;-82
2022/10/27 07:41:56;;;;;;;0.45;0.45;;;;;;;13.78;75.45;101639.34;5120205;28;20058;-82
2022/10/27 07:44:26;;;;;;;0.20;0.20;;;;;;;13.82;76.23;101651.56;5135356;28;20047;-82
2022/10/27 07:46:57;;;;;;;2.63;0.50;;;;;;;13.77;77.35;101640.25;5115876;28;20616;-82
2022/10/27 07:49:27;;;;;;;0.47;0.47;;;;;;;13.77;78.00;101642.88;5116888;29;20070;-81
2022/10/27 07:51:58;;;;;;;4.38;0.38;;;;;;;13.88;77.11;101645.28;5120098;29;20031;-82
2022/10/27 07:54:34;;;;;;;2.90;1.45;;;;;;;13.91;76.57;101652.22;5106575;29;20048;-81
2022/10/27 07:57:10;;;;;;;0.20;0.20;;;;;;;13.83;77.89;101640.13;5119921;29;20059;-81
2022/10/27 07:59:44;;;;;;;0.30;0.30;;;;;;;13.94;77.02;101639.81;5101146;28;20051;-82
2022/10/27 08:02:14;;;;;;;0.88;0.88;;;;;;;13.90;76.43;101647.88;5132927;28;21709;-82
2022/10/27 08:04:45;;;;;;;0.68;0.68;;;;;;;13.89;78.22;101651.41;5117934;28;20036;-82
2022/10/27 08:07:15;;;;;;;2.40;1.10;;;;;;;13.91;77.12;101650.44;5117436;29;20087;-81
2022/10/27 08:09:46;;;;;;;0.28;0.28;;;;;;;14.03;78.31;101646.63;5118500;29;20066;-83
2022/10/27 08:12:16;;;;;;;0.45;0.45;;;;;;;14.07;77.41;101640.38;5126166;28;20035;-82
2022/10/27 08:14:49;;;;;;;0.60;0.60;;;;;;;14.08;77.09;101647.38;5104307;29;20046;-82
2022/10/27 08:17:20;;;;;;;3.10;1.77;;;;;;;14.07;77.35;101645.66;5107679;29;20039;-82
2022/10/27 08:19:50;;;;;;;0.40;0.40;;;;;;;14.06;78.64;101646.53;5107475;28;20036;-81
2022/10/27 08:22:21;;;;;;;0.60;0.60;;;;;;;14.12;76.76;101649.00;5120301;28;20391;-82
2022/10/27 08:24:54;;;;;;;0.52;0.52;;;;;;;14.19;76.43;101655.00;5112294;29;20071;-80
2022/10/27 08:27:25;;;;;;;0.75;0.75;;;;;;;14.32;77.07;101648.47;5099037;29;20137;-80
2022/10/27 08:29:55;;;;;;;0.35;0.35;;;;;;;14.26;76.74;101645.13;5072662;29;20043;-82
2022/10/27 08:32:26;;;;;;;0.30;0.30;;;;;;;14.29;76.81;101650.31;5082851;29;20035;-82
2022/10/27 08:34:56;;;;;;;0.32;0.32;;;;;;;14.33;76.37;101641.44;5087238;29;20103;-82
2022/10/27 08:37:27;;;;;;;0.20;0.20;;;;;;;14.40;76.84;101648.25;5118240;28;20053;-83
2022/10/27 08:39:58;;;;;;;0.60;0.60;;;;;;;14.48;76.21;101640.09;5115681;28;20039;-82
2022/10/27 08:42:43;;;;;;;0.60;0.60;;;;;;;14.51;76.33;101636.50;5100801;29;20061;-82
2022/10/27 08:45:20;;;;;;;0.40;0.40;;;;;;;14.42;77.82;101643.78;5104170;29;20115;-83
2022/10/27 08:47:54;;;;;;;0.30;0.30;;;;;;;14.44;78.12;101636.69;5130763;28;20036;-82
2022/10/27 08:50:30;;;;;;;0.55;0.55;;;;;;;14.50;77.73;101632.16;5109386;29;20498;-82
2022/10/27 08:53:13;;;;;;;1.35;0.85;;;;;;;14.56;78.01;101626.69;5102612;28;20127;-82
2022/10/27 08:55:43;;;;;;;0.35;0.35;;;;;;;14.54;77.63;101623.22;5118482;29;20040;-81
2022/10/27 08:58:35;;;;;;;0.28;0.28;;;;;;;14.60;78.00;101625.66;5101027;29;20103;-82
2022/10/27 09:01:18;;;;;;;0.50;0.50;;;;;;;14.74;77.61;101633.22;5080905;29;20035;-83
2022/10/27 09:04:14;;;;;;;0.57;0.57;;;;;;;14.68;78.50;101631.63;5085151;29;20047;-83
2022/10/27 09:06:51;;;;;;;0.40;0.40;;;;;;;14.74;78.40;101630.59;5101413;29;20028;-83
2022/10/27 09:09:31;;;;;;;0.55;0.55;;;;;;;14.81;78.31;101626.84;5105147;28;20099;-83
2022/10/27 09:12:01;;;;;;;0.30;0.30;;;;;;;14.79;78.40;101623.41;5133503;28;20062;-83
2022/10/27 09:15:12;;;;;;;0.38;0.38;;;;;;;14.84;78.08;101616.19;5107302;29;20055;-83
2022/10/27 09:17:58;;;;;;;0.30;0.30;;;;;;;14.91;77.91;101611.59;5120752;28;20110;-82
2022/10/27 09:20:45;;;;;;;3.05;1.23;;;;;;;14.91;77.94;101606.31;5129915;28;20032;-83
2022/10/27 09:23:17;;;;;;;0.30;0.30;;;;;;;15.04;77.40;101602.34;5102856;29;20043;-83
2022/10/27 09:25:59;;;;;;;0.28;0.28;;;;;;;15.08;78.10;101603.13;5118342;28;20798;-83
2022/10/27 09:28:52;;;;;;;0.20;0.20;;;;;;;15.08;77.77;101598.69;5105169;29;20063;-84
2022/10/27 09:31:48;;;;;;;0.60;0.60;;;;;;;15.18;77.44;101595.75;5118219;29;20043;-83
2022/10/27 09:34:35;;;;;;;1.08;0.60;;;;;;;15.12;77.40;101588.91;5126016;28;20067;-83
2022/10/27 09:37:15;;;;;;;0.20;0.20;;;;;;;15.17;77.81;101591.38;5120144;29;20040;-83
2022/10/27 09:39:51;;;;;;;0.88;0.88;;;;;;;15.17;78.58;101589.59;5125800;29;20051;-84
2022/10/27 09:42:21;;;;;;;0.30;0.30;;;;;;;15.31;77.45;101589.16;5119834;29;20031;-83
2022/10/27 09:44:54;;;;;;;0.30;0.30;;;;;;;15.34;77.11;101578.47;5119268;28;20052;-83
2022/10/27 09:47:36;;;;;;;0.30;0.30;;;;;;;15.41;77.09;101577.34;5123006;28;20020;-83
2022/10/27 09:50:20;;;;;;;1.10;0.90;;;;;;;15.51;77.60;101569.09;5116632;28;20043;-83
2022/10/27 09:52:51;;;;;;;0.45;0.45;;;;;;;15.45;77.40;101575.50;5118977;28;20043;-82
2022/10/27 09:55:22;;;;;;;2.83;1.35;;;;;;;15.46;77.62;101576.34;5106254;29;20024;-83
2022/10/27 09:57:53;;;;;;;0.22;0.22;;;;;;;15.55;77.33;101566.28;5120217;28;20053;-82
2022/10/27 10:00:26;;;;;;;0.25;0.25;;;;;;;15.58;77.58;101565.31;5120653;29;20040;-82
2022/10/27 10:03:16;;;;;;;0.75;0.75;;;;;;;15.68;77.33;101569.38;5087037;28;20028;-82
2022/10/27 10:05:58;;;;;;;0.20;0.20;;;;;;;15.69;77.54;101567.63;5125121;29;20069;-82
2022/10/27 10:08:32;;;;;;;0.47;0.47;;;;;;;15.76;77.49;101563.84;5099713;29;20083;-81
2022/10/27 10:11:15;;;;;;;0.68;0.68;;;;;;;15.76;77.03;101561.19;5100489;29;20032;-83
2022/10/27 10:14:02;;;;;;;0.73;0.73;;;;;;;15.89;76.94;101553.72;5113765;28;20068;-82
2022/10/27 10:16:33;;;;;;;0.30;0.30;;;;;;;15.98;77.03;101557.78;5098336;29;20042;-81
2022/10/27 10:19:17;;;;;;;0.93;0.93;;;;;;;16.05;77.12;101549.59;5115655;28;20055;-80
2022/10/27 10:21:50;;;;;;;0.40;0.40;;;;;;;16.09;77.25;101557.38;5116580;29;20072;-81
2022/10/27 10:24:25;;;;;;;0.30;0.30;;;;;;;16.04;77.53;101550.50;5095416;29;20055;-81
2022/10/27 10:26:58;;;;;;;1.17;0.95;;;;;;;16.18;77.00;101559.69;5114307;29;20032;-82
2022/10/27 10:29:37;;;;;;;;;;;;;;;16.29;76.36;101554.00;5121553;28;20040;-81
2022/10/27 10:32:15;;;;;;;0.98;0.85;;;;;;;16.30;76.73;101553.97;5137735;28;19915;-82
2022/10/27 10:34:47;;;;;;;0.50;0.50;;;;;;;16.38;77.32;101544.84;5106414;29;20039;-81
2022/10/27 10:37:32;;;;;;;0.30;0.30;;;;;;;16.41;77.32;101539.41;5138297;28;20126;-82
2022/10/27 10:40:12;;;;;;;0.60;0.60;;;;;;;16.46;76.58;101537.47;5101687;29;20462;-83
2022/10/27 10:42:51;;;;;;;0.20;0.20;;;;;;;16.50;76.67;101532.00;5136133;28;20031;-84
2022/10/27 10:45:32;;;;;;;0.20;0.20;;;;;;;16.59;76.55;101521.97;5128987;28;20028;-83
2022/10/27 10:48:27;;;;;;;0.82;0.82;;;;;;;16.74;75.75;101531.06;5119469;28;20042;-82
2022/10/27 10:50:59;;;;;;;0.90;0.30;;;;;;;16.76;76.00;101519.50;5139732;28;20069;-82
2022/10/27 10:53:33;;;;;;;0.60;0.60;;;;;;;16.82;76.01;101529.84;5123487;28;20094;-82
2022/10/27 10:56:32;;;;;;;0.20;0.20;;;;;;;16.86;75.66;101521.78;5124986;29;20102;-84
2022/10/27 10:59:14;;;;;;;0.93;0.85;;;;;;;16.90;75.55;101512.78;5097221;28;20504;-82
2022/10/27 11:01:58;;;;;;;0.32;0.32;;;;;;;16.98;75.87;101519.50;5122459;28;20040;-82
2022/10/27 11:04:38;;;;;;;0.50;0.50;;;;;;;17.07;75.25;101504.13;5127605;28;20040;-82
2022/10/27 11:07:31;;;;;;;0.47;0.47;;;;;;;17.13;75.69;101506.56;5137156;28;20050;-81
2022/10/27 11:10:23;;;;;;;0.60;0.60;;;;;;;17.20;75.42;101497.41;5103630;28;20391;-81
2022/10/27 11:12:59;;;;;;;0.35;0.35;;;;;;;17.22;75.97;101500.88;5104192;29;20056;-82
2022/10/27 11:15:35;;;;;;;0.25;0.25;;;;;;;17.28;75.78;101505.91;5107105;29;20035;-81
2022/10/27 11:18:15;;;;;;;0.68;0.68;;;;;;;17.39;75.31;101493.97;5101711;28;20045;-82
2022/10/27 11:20:51;;;;;;;13.15;1.70;;;;;;;17.45;75.39;101496.34;5120100;28;20086;-81
2022/10/27 11:23:28;;;;;;;0.40;0.40;;;;;;;17.60;74.50;101490.38;5120114;28;20604;-81
2022/10/27 11:26:02;;;;;;;1.15;1.05;;;;;;;17.58;75.00;101486.06;5106701;29;20067;-82
2022/10/27 11:28:44;;;;;;;0.40;0.40;;;;;;;17.61;75.09;101478.81;5092408;28;20052;-82
2022/10/27 11:31:27;;;;;;;0.85;0.85;;;;;;;17.81;74.39;101474.38;5122514;28;20035;-83
2022/10/27 11:34:10;;;;;;;0.30;0.30;;;;;;;17.87;73.88;101470.59;5119778;28;20046;-81
2022/10/27 11:37:18;;;;;;;0.38;0.38;;;;;;;17.93;74.00;101449.09;5137318;28;20087;-82
2022/10/27 11:40:08;;;;;;;0.28;0.28;;;;;;;18.06;73.03;101446.72;5120037;29;20617;-82
2022/10/27 11:42:59;;;;;;;0.55;0.55;;;;;;;18.15;72.85;101454.28;5132211;28;20036;-83
2022/10/27 11:45:49;;;;;;;0.40;0.40;;;;;;;18.20;72.83;101446.09;5137839;28;20660;-82
2022/10/27 11:48:39;;;;;;;1.92;0.75;;;;;;;18.39;72.03;101451.38;5136034;28;20043;-83
2022/10/27 11:51:54;;;;;;;0.77;0.52;;;;;;;18.43;71.89;101457.44;5076554;29;20035;-85
2022/10/27 11:54:26;;;;;;;0.50;0.50;;;;;;;18.45;72.39;101451.09;5088429;29;20043;-82
2022/10/27 11:57:14;;;;;;;0.20;0.20;;;;;;;18.52;71.99;101439.22;5085547;29;20188;-82
2022/10/27 12:00:16;;;;;;;0.45;0.45;;;;;;;18.61;72.05;101443.22;5105566;29;20047;-80
2022/10/27 12:03:28;;;;;;;0.40;0.40;;;;;;;18.68;72.11;101441.97;5091911;28;20047;-81
2022/10/27 12:06:21;;;;;;;0.20;0.20;;;;;;;18.73;71.99;101447.06;5122139;29;20034;-83